Time;durP1;ratioP1;P1;durP2;ratioP2;P2;SDS_P1;SDS_P2;PMS_P1;PMS_P2;Temp;Humidity;BMP_temperature;BMP_pressure;BME280_temperature;BME280_humidity;BME280_pressure;Samples;Min_cycle;Max_cycle;Signal;HPM_P1;HPM_P2
2021/01/18 00:01:16;;;;;;;51.10;25.90;;;;;;;-0.21;84.21;96795.09;5090539;28;20048;-66
2021/01/18 00:03:42;;;;;;;60.70;26.20;;;;;;;-0.22;84.22;96798.03;5089795;28;20063;-66
2021/01/18 00:06:09;;;;;;;58.05;26.90;;;;;;;-0.19;84.35;96794.88;5090640;28;20097;-67
2021/01/18 00:08:35;;;;;;;58.67;27.20;;;;;;;-0.24;84.53;96800.16;5089823;28;20044;-66
2021/01/18 00:11:01;;;;;;;58.13;26.38;;;;;;;-0.21;84.54;96796.97;5089433;28;20048;-67
2021/01/18 00:13:27;;;;;;;61.88;27.38;;;;;;;-0.25;84.82;96793.16;5089921;28;20097;-66
2021/01/18 00:15:53;;;;;;;56.83;26.88;;;;;;;-0.21;84.94;96794.28;5090485;28;20044;-66
2021/01/18 00:18:19;;;;;;;57.17;26.67;;;;;;;-0.22;84.94;96798.03;5089800;28;20499;-66
2021/01/18 00:20:45;;;;;;;53.35;25.42;;;;;;;-0.15;85.03;96798.72;5090035;28;20102;-66
2021/01/18 00:23:11;;;;;;;51.33;24.35;;;;;;;-0.06;84.72;96791.91;5090074;28;20048;-66
2021/01/18 00:25:38;;;;;;;52.72;24.27;;;;;;;-0.04;84.62;96787.97;5089716;28;20491;-66
2021/01/18 00:28:04;;;;;;;54.58;24.85;;;;;;;-0.05;84.70;96793.56;5090407;28;20048;-67
2021/01/18 00:30:30;;;;;;;46.60;23.08;;;;;;;-0.10;84.92;96791.59;5089714;28;20050;-66
2021/01/18 00:32:59;;;;;;;47.95;23.70;;;;;;;-0.11;84.99;96794.50;5090718;28;20047;-66
2021/01/18 00:35:27;;;;;;;53.80;24.88;;;;;;;-0.14;85.28;96797.66;5090141;28;20047;-66
2021/01/18 00:37:53;;;;;;;52.03;25.55;;;;;;;-0.16;85.62;96791.72;5090401;28;20414;-66
2021/01/18 00:40:21;;;;;;;53.30;24.90;;;;;;;-0.18;86.19;96793.84;5088126;28;20043;-66
2021/01/18 00:42:48;;;;;;;47.67;23.83;;;;;;;-0.21;86.25;96795.09;5089793;28;20101;-66
2021/01/18 00:45:16;;;;;;;45.67;21.88;;;;;;;-0.14;86.41;96792.31;5089681;28;20040;-67
2021/01/18 00:47:43;;;;;;;44.83;22.27;;;;;;;-0.14;86.42;96790.44;5089676;28;20055;-66
2021/01/18 00:50:10;;;;;;;40.83;20.33;;;;;;;-0.05;86.35;96796.25;5089883;28;20459;-66
2021/01/18 00:52:39;;;;;;;39.67;20.70;;;;;;;0.01;86.21;96795.28;5089357;28;20036;-66
2021/01/18 00:55:07;;;;;;;37.55;19.00;;;;;;;0.02;86.13;96788.06;5090357;28;20109;-67
2021/01/18 00:57:33;;;;;;;37.58;18.90;;;;;;;0.04;86.49;96791.28;5091478;28;20055;-66
2021/01/18 01:00:00;;;;;;;34.85;18.92;;;;;;;0.07;86.33;96796.19;5094522;28;20047;-66
2021/01/18 01:02:26;;;;;;;34.85;18.58;;;;;;;0.12;86.17;96791.72;5093162;28;20048;-66
2021/01/18 01:04:52;;;;;;;36.00;17.80;;;;;;;0.17;86.35;96794.50;5094006;28;20047;-66
2021/01/18 01:07:18;;;;;;;33.47;16.98;;;;;;;0.15;86.16;96793.91;5093238;28;20051;-66
2021/01/18 01:09:44;;;;;;;31.95;17.77;;;;;;;0.11;86.33;96798.13;5092482;28;20047;-66
2021/01/18 01:12:10;;;;;;;31.02;17.00;;;;;;;0.17;86.36;96797.16;5093649;28;20051;-66
2021/01/18 01:14:36;;;;;;;34.63;17.73;;;;;;;0.10;86.42;96796.50;5093166;28;20093;-66
2021/01/18 01:17:03;;;;;;;31.55;16.73;;;;;;;0.17;86.51;96802.53;5093814;28;20530;-67
2021/01/18 01:19:29;;;;;;;28.30;15.93;;;;;;;0.15;86.62;96804.63;5093127;28;20067;-66
2021/01/18 01:21:55;;;;;;;28.95;16.80;;;;;;;0.16;86.77;96795.56;5094300;28;20564;-66
2021/01/18 01:24:21;;;;;;;28.30;16.25;;;;;;;0.21;86.71;96801.00;5092437;28;20138;-66
2021/01/18 01:26:47;;;;;;;31.25;15.55;;;;;;;0.25;86.68;96799.44;5093508;28;20055;-66
2021/01/18 01:29:13;;;;;;;30.35;16.55;;;;;;;0.23;86.60;96806.91;5092447;28;20048;-66
2021/01/18 01:31:39;;;;;;;29.30;15.90;;;;;;;0.22;86.83;96810.66;5093328;28;20506;-66
2021/01/18 01:34:06;;;;;;;29.23;16.27;;;;;;;0.28;86.93;96813.41;5092743;28;20047;-66
2021/01/18 01:36:32;;;;;;;26.98;15.82;;;;;;;0.32;86.96;96809.22;5092795;28;20054;-66
2021/01/18 01:38:58;;;;;;;24.27;14.88;;;;;;;0.33;86.85;96816.19;5092568;28;20048;-67
2021/01/18 01:41:24;;;;;;;25.90;14.95;;;;;;;0.34;86.86;96812.44;5092120;28;20093;-66
2021/01/18 01:43:50;;;;;;;24.67;14.60;;;;;;;0.33;86.67;96810.84;5093937;28;20434;-66
2021/01/18 01:46:16;;;;;;;24.67;14.23;;;;;;;0.27;87.08;96807.25;5091985;28;20123;-66
2021/01/18 01:48:43;;;;;;;22.60;14.10;;;;;;;0.34;86.97;96807.09;5093494;28;20528;-66
2021/01/18 01:51:09;;;;;;;22.92;13.57;;;;;;;0.31;86.99;96804.88;5092138;28;20063;-66
2021/01/18 01:53:36;;;;;;;21.50;13.05;;;;;;;0.34;87.10;96805.22;5093151;28;20051;-66
2021/01/18 01:56:03;;;;;;;21.15;12.40;;;;;;;0.32;86.75;96798.50;5092457;28;20648;-66
2021/01/18 01:58:29;;;;;;;20.75;12.70;;;;;;;0.30;86.82;96813.97;5092724;28;20089;-66
2021/01/18 02:00:58;;;;;;;25.20;13.45;;;;;;;0.32;86.84;96801.19;5093222;28;20073;-66
2021/01/18 02:03:33;;;;;;;22.40;12.82;;;;;;;0.27;87.08;96803.78;5091866;28;20509;-66
2021/01/18 02:05:59;;;;;;;21.98;12.02;;;;;;;0.32;87.03;96809.22;5093213;28;20040;-66
2021/01/18 02:08:26;;;;;;;20.85;12.68;;;;;;;0.37;86.83;96809.31;5090750;28;20046;-66
2021/01/18 02:10:52;;;;;;;20.35;12.45;;;;;;;0.38;86.73;96805.56;5092159;28;20054;-66
2021/01/18 02:13:25;;;;;;;21.50;12.15;;;;;;;0.42;86.63;96807.53;5091727;28;20040;-66
2021/01/18 02:16:02;;;;;;;21.88;12.13;;;;;;;0.43;86.74;96811.81;5092700;28;20074;-66
2021/01/18 02:18:46;;;;;;;20.35;12.10;;;;;;;0.46;86.63;96810.50;5092413;28;20040;-66
2021/01/18 02:22:09;;;;;;;20.77;12.50;;;;;;;0.38;86.83;96809.06;5091634;28;20075;-67
2021/01/18 02:25:04;;;;;;;20.73;11.55;;;;;;;0.45;86.89;96817.72;5010078;28;20095;-66
2021/01/18 02:27:57;;;;;;;19.05;11.48;;;;;;;0.52;86.61;96820.25;5092281;28;20040;-67
2021/01/18 02:30:40;;;;;;;18.20;10.32;;;;;;;0.48;86.61;96825.31;5091152;28;20106;-67
2021/01/18 02:33:34;;;;;;;18.60;11.07;;;;;;;0.44;86.58;96826.84;5092384;28;20052;-67
2021/01/18 02:36:13;;;;;;;18.02;10.65;;;;;;;0.49;86.54;96820.75;5092065;28;20415;-66
2021/01/18 02:38:47;;;;;;;19.05;11.57;;;;;;;0.41;86.69;96824.63;5091874;28;20044;-66
2021/01/18 02:41:22;;;;;;;16.10;9.65;;;;;;;0.44;86.69;96828.69;5091395;28;20078;-67
2021/01/18 02:43:53;;;;;;;17.98;10.57;;;;;;;0.47;86.70;96822.84;5091466;28;20064;-66
2021/01/18 02:46:21;;;;;;;22.83;11.30;;;;;;;0.39;86.78;96820.56;5092153;28;20048;-67
2021/01/18 02:48:48;;;;;;;17.65;10.73;;;;;;;0.46;86.67;96830.06;5091276;28;20091;-66
2021/01/18 02:51:19;;;;;;;18.60;10.65;;;;;;;0.55;86.35;96827.00;5091515;28;20409;-67
2021/01/18 02:53:56;;;;;;;16.55;10.25;;;;;;;0.55;86.30;96833.19;5091746;28;20044;-66
2021/01/18 02:56:26;;;;;;;18.83;9.93;;;;;;;0.46;86.44;96831.94;5091007;28;20043;-66
2021/01/18 02:58:53;;;;;;;21.20;10.90;;;;;;;0.38;86.99;96818.97;5092065;28;20057;-66
2021/01/18 03:01:34;;;;;;;21.10;11.48;;;;;;;0.45;86.88;96830.31;5090507;28;20051;-66
2021/01/18 03:04:04;;;;;;;20.70;12.20;;;;;;;0.40;87.02;96831.03;5092433;28;20052;-66
2021/01/18 03:06:39;;;;;;;23.23;11.90;;;;;;;0.36;87.22;96823.72;5090682;28;20047;-66
2021/01/18 03:09:11;;;;;;;22.40;12.63;;;;;;;0.37;87.22;96822.69;5089982;28;20070;-66
2021/01/18 03:11:40;;;;;;;19.20;11.15;;;;;;;0.34;87.39;96823.16;5091453;28;20048;-66
2021/01/18 03:14:12;;;;;;;21.00;10.48;;;;;;;0.32;87.09;96820.75;5090726;28;20632;-67
2021/01/18 03:16:42;;;;;;;18.70;11.57;;;;;;;0.37;86.90;96826.19;5091840;28;20135;-66
2021/01/18 03:19:09;;;;;;;25.08;11.00;;;;;;;0.39;86.88;96831.28;5090147;28;20043;-67
2021/01/18 03:21:36;;;;;;;18.67;10.30;;;;;;;0.45;86.61;96825.78;5090901;28;20048;-66
2021/01/18 03:24:02;;;;;;;21.20;10.73;;;;;;;0.52;86.44;96839.00;5091004;28;20105;-67
2021/01/18 03:26:28;;;;;;;21.35;11.32;;;;;;;0.58;86.13;96840.75;5091431;28;20051;-67
2021/01/18 03:28:55;;;;;;;18.88;10.50;;;;;;;0.51;86.22;96842.75;5090541;28;20135;-66
2021/01/18 03:31:21;;;;;;;23.17;12.20;;;;;;;0.51;86.48;96842.75;5090269;28;20564;-66
2021/01/18 03:33:48;;;;;;;24.05;11.30;;;;;;;0.57;86.30;96835.59;5071090;28;20170;-67
2021/01/18 03:36:14;;;;;;;19.75;11.05;;;;;;;0.59;86.27;96842.38;5069924;28;20044;-67
2021/01/18 03:38:40;;;;;;;20.70;11.55;;;;;;;0.56;86.49;96842.03;5071067;28;20052;-67
2021/01/18 03:41:07;;;;;;;20.75;11.25;;;;;;;0.57;86.61;96843.66;5089040;28;20074;-68
2021/01/18 03:43:33;;;;;;;25.52;11.95;;;;;;;0.54;86.70;96842.28;5091363;28;20127;-67
2021/01/18 03:45:59;;;;;;;22.48;11.70;;;;;;;0.49;86.79;96834.97;5090136;28;20503;-67
2021/01/18 03:48:25;;;;;;;18.92;11.07;;;;;;;0.43;86.98;96835.13;5090546;28;20044;-67
2021/01/18 03:50:51;;;;;;;20.92;11.88;;;;;;;0.42;87.09;96837.00;5090163;28;20560;-68
2021/01/18 03:53:17;;;;;;;20.90;11.75;;;;;;;0.38;87.26;96840.38;5090491;28;20047;-67
2021/01/18 03:55:44;;;;;;;18.40;10.80;;;;;;;0.44;87.25;96839.41;5090398;28;20105;-67
2021/01/18 03:58:10;;;;;;;21.17;10.90;;;;;;;0.45;87.15;96841.84;5089937;28;20491;-68
2021/01/18 04:00:36;;;;;;;17.55;10.63;;;;;;;0.42;87.31;96849.56;5090578;28;20067;-67
2021/01/18 04:03:03;;;;;;;18.35;11.43;;;;;;;0.42;87.48;96846.91;5080699;28;20048;-68
2021/01/18 04:05:29;;;;;;;21.98;11.02;;;;;;;0.42;87.32;96846.91;5070630;28;20049;-68
2021/01/18 04:07:56;;;;;;;22.58;10.15;;;;;;;0.34;87.49;96833.88;5069829;28;20526;-68
2021/01/18 04:10:24;;;;;;;19.25;10.75;;;;;;;0.38;87.47;96845.75;5083502;28;20062;-67
2021/01/18 04:12:51;;;;;;;18.15;10.43;;;;;;;0.40;87.26;96849.00;5089576;28;20055;-67
2021/01/18 04:15:19;;;;;;;16.20;10.25;;;;;;;0.41;87.02;96850.59;5090444;28;20055;-68
2021/01/18 04:17:47;;;;;;;17.02;10.13;;;;;;;0.54;86.79;96849.50;5089671;28;20525;-67
2021/01/18 04:20:13;;;;;;;18.27;9.90;;;;;;;0.46;86.76;96845.34;5089763;28;20498;-68
2021/01/18 04:22:45;;;;;;;18.55;10.10;;;;;;;0.44;86.64;96844.78;5090112;28;20101;-68
2021/01/18 04:25:13;;;;;;;16.55;10.13;;;;;;;0.42;86.96;96849.56;5089303;28;20120;-68
2021/01/18 04:27:44;;;;;;;18.80;9.95;;;;;;;0.52;86.83;96844.38;5090237;28;20407;-67
2021/01/18 04:30:13;;;;;;;17.95;9.90;;;;;;;0.45;86.72;96844.53;5088954;28;20051;-68
2021/01/18 04:32:39;;;;;;;17.20;9.68;;;;;;;0.41;86.98;96845.25;5084639;28;20479;-68
2021/01/18 04:35:05;;;;;;;21.55;10.30;;;;;;;0.36;87.24;96842.47;5068668;28;20048;-67
2021/01/18 04:37:32;;;;;;;19.30;10.88;;;;;;;0.31;87.56;96845.88;5070759;28;20048;-67
2021/01/18 04:39:58;;;;;;;18.58;10.40;;;;;;;0.36;87.53;96843.28;5079291;28;20044;-67
2021/01/18 04:42:26;;;;;;;19.17;9.77;;;;;;;0.50;87.29;96849.16;5089576;28;20043;-67
2021/01/18 04:44:54;;;;;;;17.92;9.60;;;;;;;0.45;86.90;96849.06;5089714;28;20078;-67
2021/01/18 04:47:22;;;;;;;15.80;9.57;;;;;;;0.47;86.88;96837.09;5089093;28;20040;-67
2021/01/18 04:49:53;;;;;;;16.17;9.27;;;;;;;0.45;86.66;96841.03;5090170;28;20051;-67
2021/01/18 04:52:27;;;;;;;16.55;9.35;;;;;;;0.47;86.53;96842.44;5088792;28;20040;-67
2021/01/18 04:54:55;;;;;;;13.98;8.02;;;;;;;0.52;86.57;96841.69;5090621;28;20453;-67
2021/01/18 04:57:25;;;;;;;16.60;8.20;;;;;;;0.51;86.16;96843.56;5088699;28;20051;-67
2021/01/18 04:59:55;;;;;;;16.42;9.35;;;;;;;0.54;86.04;96842.28;5090300;28;20495;-67
2021/01/18 05:02:23;;;;;;;17.63;8.98;;;;;;;0.54;85.92;96844.97;5085617;28;20127;-67
2021/01/18 05:04:51;;;;;;;14.13;8.07;;;;;;;0.60;85.67;96843.97;5069624;28;20511;-67
2021/01/18 05:08:03;;;;;;;16.55;8.15;;;;;;;0.62;85.68;96846.41;5069145;28;20044;-68
2021/01/18 05:10:31;;;;;;;14.25;8.35;;;;;;;0.61;85.21;96850.16;5082740;28;20040;-67
2021/01/18 05:13:00;;;;;;;13.55;8.20;;;;;;;0.48;85.66;96843.25;5090229;28;20066;-67
2021/01/18 05:15:27;;;;;;;17.10;8.38;;;;;;;0.52;85.84;96849.72;5088760;28;20495;-67
2021/01/18 05:18:06;;;;;;;15.15;8.02;;;;;;;0.45;85.65;96843.72;5089904;28;20127;-67
2021/01/18 05:20:33;;;;;;;13.85;8.30;;;;;;;0.47;85.73;96857.69;5089453;28;20139;-66
2021/01/18 05:23:07;;;;;;;14.60;8.13;;;;;;;0.48;85.69;96845.94;5089213;28;20048;-67
2021/01/18 05:25:33;;;;;;;15.48;8.35;;;;;;;0.45;85.89;96849.88;5089671;28;20047;-68
2021/01/18 05:28:01;;;;;;;14.25;9.10;;;;;;;0.46;85.78;96854.19;5089934;28;20445;-67
2021/01/18 05:30:29;;;;;;;14.80;8.65;;;;;;;0.46;86.15;96858.72;5089757;28;20040;-67
2021/01/18 05:33:08;;;;;;;15.82;8.40;;;;;;;0.46;86.13;96864.09;5080912;28;20411;-67
2021/01/18 05:35:36;;;;;;;17.98;9.30;;;;;;;0.42;86.59;96860.28;5061413;28;20411;-67
2021/01/18 05:38:10;;;;;;;14.23;8.20;;;;;;;0.47;86.68;96863.03;5068594;28;20048;-68
2021/01/18 05:40:41;;;;;;;16.58;8.95;;;;;;;0.41;86.66;96866.69;5084600;28;20044;-67
2021/01/18 05:43:07;;;;;;;17.27;8.90;;;;;;;0.41;86.88;96864.00;5089116;28;20048;-68
2021/01/18 05:45:34;;;;;;;19.45;9.57;;;;;;;0.39;86.90;96864.25;5092472;28;20048;-67
2021/01/18 05:48:03;;;;;;;17.58;9.13;;;;;;;0.43;87.03;96864.59;5093642;28;20048;-67
2021/01/18 05:50:29;;;;;;;19.83;10.38;;;;;;;0.35;87.14;96867.66;5071907;28;20036;-67
2021/01/18 05:52:56;;;;;;;19.33;9.60;;;;;;;0.36;87.36;96874.63;5073275;28;20497;-67
2021/01/18 05:55:25;;;;;;;15.40;8.38;;;;;;;0.42;87.06;96873.69;5071525;28;20056;-67
2021/01/18 05:57:53;;;;;;;17.30;10.05;;;;;;;0.36;87.10;96871.94;5073052;28;20047;-67
2021/01/18 06:00:45;;;;;;;17.63;8.77;;;;;;;0.37;87.24;96868.25;5071611;28;20052;-67
2021/01/18 06:03:13;;;;;;;17.27;9.38;;;;;;;0.37;87.22;96870.91;5047752;28;20049;-67
2021/01/18 06:05:40;;;;;;;16.05;9.00;;;;;;;0.48;87.02;96870.03;5053127;28;20512;-67
2021/01/18 06:08:11;;;;;;;18.40;9.25;;;;;;;0.45;86.80;96876.69;5051476;28;20049;-67
2021/01/18 06:10:38;;;;;;;21.10;9.73;;;;;;;0.48;86.94;96878.09;5068002;28;20078;-66
2021/01/18 06:13:04;;;;;;;19.33;9.10;;;;;;;0.46;87.03;96872.13;5071422;28;20048;-67
2021/01/18 06:15:30;;;;;;;17.75;9.60;;;;;;;0.42;87.11;96862.97;5072672;28;20040;-67
2021/01/18 06:17:58;;;;;;;20.45;9.73;;;;;;;0.38;87.44;96867.19;5072045;28;20055;-67
2021/01/18 06:20:26;;;;;;;19.05;9.30;;;;;;;0.37;87.69;96865.56;5071860;28;20209;-67
2021/01/18 06:22:53;;;;;;;15.98;9.20;;;;;;;0.32;87.72;96865.47;5072363;28;20068;-67
2021/01/18 06:25:20;;;;;;;19.83;9.30;;;;;;;0.36;87.65;96869.28;5071316;28;20384;-67
2021/01/18 06:27:46;;;;;;;18.10;9.20;;;;;;;0.37;87.63;96865.56;5072400;28;20053;-67
2021/01/18 06:30:24;;;;;;;19.08;9.10;;;;;;;0.39;87.59;96868.81;5070688;28;20454;-67
2021/01/18 06:32:51;;;;;;;17.52;9.43;;;;;;;0.45;87.49;96878.56;5064739;28;20044;-67
2021/01/18 06:35:22;;;;;;;14.60;8.23;;;;;;;0.39;87.23;96880.31;5050969;28;20102;-67
2021/01/18 06:37:57;;;;;;;20.48;9.13;;;;;;;0.34;87.47;96882.91;5059176;28;20094;-67
2021/01/18 06:40:28;;;;;;;21.30;9.80;;;;;;;0.36;87.38;96888.03;5085348;28;20487;-67
2021/01/18 06:42:55;;;;;;;15.60;8.18;;;;;;;0.43;87.25;96888.72;5091898;28;20044;-67
2021/01/18 06:45:21;;;;;;;17.15;8.50;;;;;;;0.43;87.25;96891.38;5091823;28;20044;-67
2021/01/18 06:47:47;;;;;;;18.50;8.32;;;;;;;0.43;87.02;96897.56;5091541;28;20400;-67
2021/01/18 06:50:14;;;;;;;16.63;8.00;;;;;;;0.40;87.14;96898.03;5091908;28;20506;-67
2021/01/18 06:52:47;;;;;;;20.73;9.15;;;;;;;0.43;87.14;96902.09;5091180;28;20056;-67
2021/01/18 06:55:24;;;;;;;15.63;9.43;;;;;;;0.39;87.24;96900.94;5091771;28;20075;-67
2021/01/18 06:58:02;;;;;;;14.73;8.40;;;;;;;0.44;87.09;96909.09;5091426;28;20047;-67
2021/01/18 07:00:29;;;;;;;15.20;7.88;;;;;;;0.53;86.95;96913.00;5091558;28;20043;-67
2021/01/18 07:02:57;;;;;;;17.52;8.55;;;;;;;0.46;86.96;96923.03;5083910;28;20051;-67
2021/01/18 07:05:46;;;;;;;15.77;8.35;;;;;;;0.47;86.93;96916.63;5070275;28;20063;-66
2021/01/18 07:08:15;;;;;;;19.00;8.70;;;;;;;0.48;86.89;96931.66;5071547;28;20055;-67
2021/01/18 07:10:45;;;;;;;20.05;8.77;;;;;;;0.43;87.10;96924.34;5086441;28;20097;-67
2021/01/18 07:13:11;;;;;;;18.70;8.13;;;;;;;0.40;87.34;96937.41;5091520;28;20044;-67
2021/01/18 07:15:41;;;;;;;18.85;9.32;;;;;;;0.36;87.68;96944.28;5091723;28;20036;-67
2021/01/18 07:18:09;;;;;;;18.38;8.70;;;;;;;0.37;88.06;96935.22;5091042;28;20040;-68
2021/01/18 07:20:40;;;;;;;21.05;9.88;;;;;;;0.30;88.06;96939.88;5091482;28;20057;-67
2021/01/18 07:23:31;;;;;;;18.48;9.55;;;;;;;0.41;88.09;96949.75;5090438;28;20487;-68
2021/01/18 07:26:31;;;;;;;21.88;10.63;;;;;;;0.28;88.65;96952.72;5091821;28;20110;-68
2021/01/18 07:29:02;;;;;;;22.30;11.00;;;;;;;0.27;89.03;96953.75;5090559;28;20044;-68
2021/01/18 07:31:30;;;;;;;21.30;9.77;;;;;;;0.28;89.24;96953.53;5091111;28;20071;-68
2021/01/18 07:33:56;;;;;;;20.90;10.30;;;;;;;0.30;89.24;96955.94;5072860;28;20449;-68
2021/01/18 07:36:27;;;;;;;24.13;10.52;;;;;;;0.27;89.24;96954.56;5070083;28;20105;-68
2021/01/18 07:38:53;;;;;;;25.92;10.60;;;;;;;0.31;89.36;96968.28;5071958;28;20048;-68
2021/01/18 07:41:20;;;;;;;23.15;11.07;;;;;;;0.26;89.46;96963.63;5089852;28;20058;-68
2021/01/18 07:43:48;;;;;;;26.67;11.20;;;;;;;0.31;89.32;96979.00;5091646;28;20052;-68
2021/01/18 07:46:35;;;;;;;19.90;10.25;;;;;;;0.35;89.12;96974.81;5089698;28;20074;-69
2021/01/18 07:49:44;;;;;;;25.48;11.05;;;;;;;0.30;89.50;96977.38;5090400;28;20047;-70
2021/01/18 07:52:27;;;;;;;26.30;11.73;;;;;;;0.20;89.79;96978.78;5090729;28;20391;-74
2021/01/18 07:54:54;;;;;;;20.90;11.05;;;;;;;0.23;89.88;96983.69;5088294;28;20044;-73
2021/01/18 07:57:40;;;;;;;26.45;11.45;;;;;;;0.29;90.03;96983.78;5072612;28;20086;-70
2021/01/18 08:00:29;;;;;;;22.52;11.60;;;;;;;0.35;89.76;96988.19;5071969;28;20148;-70
2021/01/18 08:03:11;;;;;;;28.08;12.23;;;;;;;0.20;90.16;96984.16;5082579;28;20045;-71
2021/01/18 08:05:39;;;;;;;25.60;12.45;;;;;;;0.21;90.27;96990.34;5069932;28;20043;-71
2021/01/18 08:08:06;;;;;;;23.65;12.15;;;;;;;0.18;90.34;96996.16;5068380;28;20072;-74
2021/01/18 08:11:07;;;;;;;28.25;12.65;;;;;;;0.23;90.45;96989.03;5085632;28;20071;-72
2021/01/18 08:13:45;;;;;;;24.70;12.05;;;;;;;0.29;90.17;96999.88;5085696;28;20505;-72
2021/01/18 08:16:24;;;;;;;27.33;11.82;;;;;;;0.28;90.23;97003.59;5089693;28;20419;-72
2021/01/18 08:22:04;;;;;;;27.58;12.73;;;;;;;0.21;90.42;97001.06;5086963;28;20126;-72
2021/01/18 08:24:52;;;;;;;24.40;11.38;;;;;;;0.29;90.41;97002.53;5090449;28;20047;-73
2021/01/18 08:27:35;;;;;;;22.50;11.63;;;;;;;0.31;90.27;97009.28;5089629;28;20414;-73
2021/01/18 08:30:15;;;;;;;25.40;12.40;;;;;;;0.36;90.15;97019.28;5089415;28;20047;-72
2021/01/18 08:32:43;;;;;;;26.33;10.98;;;;;;;0.42;89.96;97010.34;5085013;28;20044;-72
2021/01/18 08:35:22;;;;;;;24.52;12.02;;;;;;;0.41;89.84;97014.03;5068980;28;20048;-73
2021/01/18 08:37:55;;;;;;;25.77;11.98;;;;;;;0.32;89.97;97015.47;5070301;28;20048;-72
2021/01/18 08:40:22;;;;;;;25.05;11.55;;;;;;;0.28;90.09;97022.34;5082647;28;20050;-73
2021/01/18 08:42:55;;;;;;;24.05;11.73;;;;;;;0.34;90.08;97022.22;5090163;28;20044;-73
2021/01/18 08:45:23;;;;;;;23.60;11.52;;;;;;;0.34;90.12;97029.44;5090088;28;20048;-73
2021/01/18 08:47:55;;;;;;;22.80;11.82;;;;;;;0.31;90.22;97029.91;5090680;28;20506;-72
2021/01/18 08:50:26;;;;;;;21.45;10.85;;;;;;;0.28;90.26;97031.19;5090188;28;20129;-74
2021/01/18 08:52:54;;;;;;;24.27;11.20;;;;;;;0.27;90.26;97032.25;5089525;28;20078;-72
2021/01/18 08:55:51;;;;;;;22.50;11.50;;;;;;;0.35;90.24;97033.75;5090141;28;20055;-73
2021/01/18 08:58:40;;;;;;;21.90;11.15;;;;;;;0.34;90.11;97043.66;5089463;28;20051;-73
2021/01/18 09:01:16;;;;;;;23.25;12.05;;;;;;;0.27;90.06;97037.63;5089157;28;20044;-73
2021/01/18 09:03:43;;;;;;;20.42;11.73;;;;;;;0.22;90.18;97037.50;5076339;28;20048;-73
2021/01/18 09:06:10;;;;;;;20.42;10.68;;;;;;;0.22;89.98;97041.00;5068876;28;20045;-72
2021/01/18 09:08:38;;;;;;;25.27;11.80;;;;;;;0.25;90.12;97039.69;5070224;28;20052;-72
2021/01/18 09:11:06;;;;;;;22.90;10.95;;;;;;;0.28;90.00;97038.44;5088007;28;20063;-73
2021/01/18 09:13:33;;;;;;;23.02;10.98;;;;;;;0.35;89.70;97049.81;5090084;28;20044;-73
2021/01/18 09:16:03;;;;;;;20.77;9.98;;;;;;;0.43;89.36;97046.78;5089833;28;20041;-72
2021/01/18 09:18:29;;;;;;;21.05;10.48;;;;;;;0.44;88.97;97054.59;5091430;28;20062;-72
2021/01/18 09:20:58;;;;;;;20.05;9.32;;;;;;;0.46;88.65;97051.66;5094006;28;20136;-73
2021/01/18 09:23:25;;;;;;;19.20;9.50;;;;;;;0.42;88.72;97054.00;5092604;28;20048;-72
2021/01/18 09:25:59;;;;;;;19.83;9.07;;;;;;;0.38;88.52;97058.22;5094114;28;20468;-72
2021/01/18 09:28:24;;;;;;;19.38;9.05;;;;;;;0.47;88.58;97064.00;5092652;28;20044;-72
2021/01/18 09:30:50;;;;;;;20.73;9.88;;;;;;;0.40;88.15;97066.81;5093496;28;20044;-72
2021/01/18 09:33:16;;;;;;;20.05;9.23;;;;;;;0.44;88.28;97065.28;5081928;28;20107;-72
2021/01/18 09:35:44;;;;;;;17.27;9.00;;;;;;;0.48;88.12;97065.66;5073329;28;20083;-71
2021/01/18 09:38:13;;;;;;;22.10;9.25;;;;;;;0.48;88.00;97069.13;5072567;28;20065;-72
2021/01/18 09:40:41;;;;;;;20.25;9.82;;;;;;;0.53;88.02;97068.44;5088733;28;20040;-73
2021/01/18 09:43:08;;;;;;;19.52;8.60;;;;;;;0.51;87.73;97076.69;5093120;28;20047;-72
2021/01/18 09:45:36;;;;;;;20.05;9.30;;;;;;;0.55;87.83;97077.03;5092807;28;20055;-73
2021/01/18 09:48:03;;;;;;;18.73;9.27;;;;;;;0.61;87.44;97070.72;5093428;28;20051;-73
2021/01/18 09:50:30;;;;;;;20.60;9.18;;;;;;;0.48;87.35;97073.69;5092181;28;20045;-73
2021/01/18 09:52:57;;;;;;;17.85;9.13;;;;;;;0.51;87.80;97067.84;5093932;28;20055;-73
2021/01/18 09:55:26;;;;;;;16.98;8.98;;;;;;;0.59;87.68;97077.38;5092003;28;20044;-73
2021/01/18 09:57:58;;;;;;;16.73;8.25;;;;;;;0.64;87.39;97064.91;5093471;28;20055;-72
2021/01/18 10:00:26;;;;;;;22.55;9.50;;;;;;;0.75;87.10;97069.41;5092528;28;20044;-73
2021/01/18 10:02:54;;;;;;;22.30;9.07;;;;;;;0.83;86.86;97073.56;5085385;28;20040;-73
2021/01/18 10:05:30;;;;;;;20.88;8.50;;;;;;;0.73;86.88;97068.84;5072514;28;20037;-73
2021/01/18 10:07:59;;;;;;;19.05;8.23;;;;;;;0.72;86.63;97067.19;5071982;28;20059;-73
2021/01/18 10:10:25;;;;;;;17.70;8.43;;;;;;;0.72;86.69;97066.38;5085415;28;20126;-72
2021/01/18 10:12:54;;;;;;;19.92;8.60;;;;;;;0.87;86.56;97063.19;5087112;28;20163;-72
2021/01/18 10:15:25;;;;;;;19.27;8.10;;;;;;;0.90;86.22;97068.09;5086648;28;20048;-72
2021/01/18 10:17:53;;;;;;;16.80;8.00;;;;;;;0.91;85.93;97067.03;5089152;28;20055;-72
2021/01/18 10:20:24;;;;;;;18.45;7.95;;;;;;;0.89;85.64;97067.28;5088907;28;20457;-72
2021/01/18 10:22:50;;;;;;;19.17;8.52;;;;;;;0.92;85.56;97066.78;5089434;28;20056;-72
2021/01/18 10:25:18;;;;;;;15.85;8.68;;;;;;;0.80;85.79;97071.38;5088344;28;20796;-72
2021/01/18 10:27:52;;;;;;;19.13;8.90;;;;;;;0.80;86.14;97063.34;5089442;28;20456;-71
2021/01/18 10:30:21;;;;;;;19.92;8.88;;;;;;;0.63;86.69;97068.66;5087140;28;20048;-73
2021/01/18 10:32:49;;;;;;;17.17;8.23;;;;;;;0.66;87.10;97068.16;5082972;28;20061;-72
2021/01/18 10:35:20;;;;;;;17.73;8.48;;;;;;;0.62;87.11;97075.03;5068006;28;20403;-73
2021/01/18 10:37:46;;;;;;;16.67;8.00;;;;;;;0.66;87.02;97078.88;5069018;28;20075;-72
2021/01/18 10:40:13;;;;;;;15.80;7.10;;;;;;;0.69;86.93;97077.59;5079942;28;20510;-73
2021/01/18 10:42:48;;;;;;;18.02;9.05;;;;;;;0.54;87.18;97088.81;5088893;28;20052;-72
2021/01/18 10:45:17;;;;;;;17.45;8.32;;;;;;;0.61;87.47;97083.31;5071006;28;20076;-72
2021/01/18 10:47:54;;;;;;;21.40;7.65;;;;;;;0.61;87.42;97086.81;5070424;28;20055;-72
2021/01/18 10:50:24;;;;;;;18.23;8.35;;;;;;;0.48;87.50;97087.09;5088779;28;20079;-72
2021/01/18 10:52:50;;;;;;;24.45;8.30;;;;;;;0.48;87.82;97084.41;5088312;28;20486;-72
2021/01/18 10:55:17;;;;;;;18.15;8.00;;;;;;;0.49;88.09;97084.16;5088851;28;20051;-72
2021/01/18 10:57:45;;;;;;;18.40;8.60;;;;;;;0.47;87.85;97074.72;5088281;28;20443;-72
2021/01/18 11:00:14;;;;;;;18.92;8.13;;;;;;;0.57;87.60;97068.75;5088292;28;20076;-73
2021/01/18 11:02:42;;;;;;;17.42;7.53;;;;;;;0.65;87.52;97071.09;5082809;28;20057;-72
2021/01/18 11:05:10;;;;;;;16.55;7.72;;;;;;;0.67;87.59;97064.41;5067546;28;20080;-72
2021/01/18 11:07:36;;;;;;;23.20;8.18;;;;;;;0.60;87.48;97066.44;5068595;28;20503;-72
2021/01/18 11:10:06;;;;;;;17.05;8.07;;;;;;;0.69;87.43;97074.94;5077868;28;20048;-72
2021/01/18 11:12:32;;;;;;;20.10;8.73;;;;;;;0.66;87.19;97070.03;5089012;28;20059;-72
2021/01/18 11:14:59;;;;;;;16.40;8.10;;;;;;;0.67;86.87;97069.78;5088009;28;20052;-72
2021/01/18 11:17:27;;;;;;;17.73;7.47;;;;;;;0.68;87.19;97065.22;5088456;28;20058;-72
2021/01/18 11:19:54;;;;;;;14.52;7.10;;;;;;;0.76;87.12;97063.00;5087922;28;20052;-72
2021/01/18 11:22:20;;;;;;;11.93;6.65;;;;;;;0.84;86.82;97069.06;5087964;28;20101;-72
2021/01/18 11:24:46;;;;;;;13.70;7.20;;;;;;;0.67;86.72;97067.09;5088269;28;20456;-71
2021/01/18 11:27:12;;;;;;;12.98;6.53;;;;;;;0.77;86.96;97063.81;5087513;28;20052;-72
2021/01/18 11:29:38;;;;;;;18.75;7.03;;;;;;;0.76;86.51;97060.31;5088283;28;20070;-72
2021/01/18 11:32:04;;;;;;;19.10;7.28;;;;;;;0.67;86.80;97053.69;5086675;28;20067;-71
2021/01/18 11:34:31;;;;;;;16.73;7.15;;;;;;;0.69;86.68;97051.59;5067951;28;20519;-71
2021/01/18 11:37:03;;;;;;;15.27;6.43;;;;;;;0.82;86.55;97055.06;5068098;28;20135;-71
2021/01/18 11:39:29;;;;;;;15.15;7.03;;;;;;;0.83;86.15;97049.44;5073862;28;20173;-72
2021/01/18 11:41:55;;;;;;;16.15;6.95;;;;;;;0.82;86.52;97045.16;5086288;28;20052;-71
2021/01/18 11:44:21;;;;;;;14.50;6.72;;;;;;;0.83;86.24;97048.63;5087719;28;20085;-72
2021/01/18 11:46:47;;;;;;;18.75;7.22;;;;;;;0.78;86.43;97044.81;5087515;28;20079;-71